• Join FlightAware (Why Join?)
  • Login
  • US Flag 
07:35AM EST


 

Airport Tracker/Info


-or-


 

Live Flight TrackerFlight Track Log ✈ N237AC ✈ 04-Feb-2013 ✈ KFWA - KOSU

Flight Track Log - Related Links

Times and Time Zones

All times are in EST time to prevent confusion due to time zone crossing. See the N237AC flight status page for this flight to view local times or setup timezone preferences in your user account.

Time Position Orientation Groundspeed Altitude Reporting Facility
EST Latitude Longitude Course Direction KTS MPH feet Rate Location/Type
11:18AM 40.8638 -84.9160 118° Southeast  Level Estimated
11:19AM 40.8447 -84.8696 119° Southeast  Level Estimated
11:20AM 40.8255 -84.8232 119° Southeast  Level Estimated
11:21AM 40.8063 -84.7768 119° Southeast  Level Estimated
11:22AM 40.7870 -84.7304 119° Southeast  Level Estimated
11:23AM 40.7678 -84.6841 119° Southeast  Level Estimated
11:24AM 40.7485 -84.6378 119° Southeast  Level Estimated
11:25AM 40.7292 -84.5916 119° Southeast  Level Estimated
11:26AM 40.7099 -84.5453 119° Southeast  Level Estimated
11:27AM 40.6906 -84.4991 119° Southeast  Level Estimated
11:28AM 40.6713 -84.4529 119° Southeast  Level Estimated
11:29AM 40.6519 -84.4067 119° Southeast  Level Estimated
11:30AM 40.6325 -84.3606 119° Southeast  Level Estimated
11:31AM 40.6132 -84.3145 119° Southeast  Level Estimated
11:32AM 40.5937 -84.2684 119° Southeast  Level Estimated
11:33AM 40.5743 -84.2224 119° Southeast  Level Estimated
11:34AM 40.5549 -84.1763 119° Southeast  Level Estimated
11:35AM 40.5354 -84.1303 119° Southeast  Level Estimated
11:36AM 40.5159 -84.0843 119° Southeast  Level Estimated
11:37AM 40.4964 -84.0384 119° Southeast  Level Estimated
11:38AM 40.4769 -83.9925 119° Southeast  Level Estimated
11:39AM 40.4573 -83.9466 119° Southeast  Level Estimated
11:40AM 40.4378 -83.9007 119° Southeast  Level Estimated
11:41AM 40.4182 -83.8549 119° Southeast  Level Estimated
11:42AM 40.3986 -83.8090 119° Southeast  Level Estimated
11:43AM 40.3790 -83.7633 119° Southeast  Level Estimated
11:44AM 40.3594 -83.7175 119° Southeast  Level Estimated
11:45AM 40.3397 -83.6718 119° Southeast  Level Estimated
11:46AM 40.3200 -83.6260 119° Southeast  Level Estimated
11:47AM 40.3004 -83.5804 119° Southeast  Level Estimated
11:48AM 40.2807 -83.5347 119° Southeast  Level Estimated
11:49AM 40.2609 -83.4891 120° Southeast  Level Estimated
11:50AM 40.2412 -83.4435 120° Southeast  Level Estimated
11:51AM 40.2215 -83.3979 120° Southeast  Level Estimated
11:52AM 40.2017 -83.3523 120° Southeast  Level Estimated
11:53AM 40.1819 -83.3068 120° Southeast  Level Estimated
11:54AM 40.1621 -83.2613 120° Southeast  Level Estimated
11:55AM 40.1423 -83.2159 120° Southeast  Level Estimated
11:56AM 40.1224 -83.1704 120° Southeast  Level Estimated
11:57AM 40.1025 -83.1250 120° Southeast  Level Estimated
11:58AM 40.0827 -83.0796 120° Southeast  Level Estimated
11:59AM 40.0798 -83.0732 120° Southeast  Level Estimated
12:00PM 40.0798 -83.0732 305° West  Level Estimated
12:01PM 40.0798 -83.0732 305° West  Level Estimated
12:02PM 40.0798 -83.0732 305° West  Level Estimated
12:03PM 40.0798 -83.0732 305° West  Level Estimated
12:04PM 40.0798 -83.0732 305° West  Level Estimated
12:05PM 40.0798 -83.0732 305° West  Level Estimated
12:06PM 40.0798 -83.0732 305° West  Level Estimated
12:07PM 40.0798 -83.0732 305° West  Level Estimated
12:08PM 40.0798 -83.0732 305° West  Level Estimated
12:09PM 40.0798 -83.0732 305° West  Level Estimated
12:10PM 40.0798 -83.0732 305° West  Level Estimated
12:11PM 40.0798 -83.0732 305° West  Level Estimated
12:12PM 40.0798 -83.0732 305° West  Level Estimated
12:13PM 40.0798 -83.0732 305° West  Level Estimated
12:14PM 40.0798 -83.0732 305° West  Level Estimated